sensor_id;sensor_type;location;lat;lon;timestamp;P1;durP1;ratioP1;P2;durP2;ratioP2
42094;SDS011;27753;55.724;37.612;2022-12-29T00:02:03;7.20;;;2.72;;
42094;SDS011;27753;55.724;37.612;2022-12-29T00:04:29;6.57;;;3.45;;
42094;SDS011;27753;55.724;37.612;2022-12-29T00:06:55;8.77;;;2.28;;
42094;SDS011;27753;55.724;37.612;2022-12-29T00:09:21;7.20;;;3.08;;
42094;SDS011;27753;55.724;37.612;2022-12-29T00:11:47;8.63;;;2.65;;
42094;SDS011;27753;55.724;37.612;2022-12-29T00:16:59;4.03;;;1.88;;
42094;SDS011;27753;55.724;37.612;2022-12-29T00:19:25;3.70;;;1.83;;
42094;SDS011;27753;55.724;37.612;2022-12-29T00:22:10;2.97;;;1.80;;
42094;SDS011;27753;55.724;37.612;2022-12-29T00:24:55;7.38;;;1.83;;
42094;SDS011;27753;55.724;37.612;2022-12-29T00:27:27;5.43;;;1.80;;
42094;SDS011;27753;55.724;37.612;2022-12-29T00:30:13;4.45;;;2.00;;
42094;SDS011;27753;55.724;37.612;2022-12-29T00:33:09;3.17;;;1.83;;
42094;SDS011;27753;55.724;37.612;2022-12-29T00:36:45;4.35;;;1.60;;
42094;SDS011;27753;55.724;37.612;2022-12-29T00:39:01;3.08;;;1.55;;
42094;SDS011;27753;55.724;37.612;2022-12-29T00:41:48;2.75;;;1.50;;
42094;SDS011;27753;55.724;37.612;2022-12-29T00:44:32;10.77;;;2.55;;
42094;SDS011;27753;55.724;37.612;2022-12-29T00:46:58;4.47;;;1.95;;
42094;SDS011;27753;55.724;37.612;2022-12-29T00:49:32;3.63;;;1.33;;
42094;SDS011;27753;55.724;37.612;2022-12-29T00:52:02;3.50;;;1.95;;
42094;SDS011;27753;55.724;37.612;2022-12-29T00:54:31;3.47;;;2.53;;
42094;SDS011;27753;55.724;37.612;2022-12-29T00:57:00;5.97;;;2.65;;
42094;SDS011;27753;55.724;37.612;2022-12-29T00:59:26;3.58;;;1.55;;
42094;SDS011;27753;55.724;37.612;2022-12-29T01:01:52;9.18;;;2.00;;
42094;SDS011;27753;55.724;37.612;2022-12-29T01:04:19;3.05;;;1.35;;
42094;SDS011;27753;55.724;37.612;2022-12-29T01:06:46;2.95;;;1.45;;
42094;SDS011;27753;55.724;37.612;2022-12-29T01:09:12;8.18;;;3.05;;
42094;SDS011;27753;55.724;37.612;2022-12-29T01:11:57;8.15;;;2.35;;
42094;SDS011;27753;55.724;37.612;2022-12-29T01:14:23;3.58;;;2.47;;
42094;SDS011;27753;55.724;37.612;2022-12-29T01:16:50;3.85;;;1.80;;
42094;SDS011;27753;55.724;37.612;2022-12-29T01:19:16;4.00;;;1.73;;
42094;SDS011;27753;55.724;37.612;2022-12-29T01:21:42;2.47;;;1.48;;
42094;SDS011;27753;55.724;37.612;2022-12-29T01:24:09;6.03;;;1.40;;
42094;SDS011;27753;55.724;37.612;2022-12-29T01:26:35;7.78;;;2.53;;
42094;SDS011;27753;55.724;37.612;2022-12-29T01:29:00;4.57;;;2.33;;
42094;SDS011;27753;55.724;37.612;2022-12-29T01:31:26;6.22;;;2.30;;
42094;SDS011;27753;55.724;37.612;2022-12-29T01:33:52;6.03;;;2.58;;
42094;SDS011;27753;55.724;37.612;2022-12-29T01:36:18;4.22;;;1.85;;
42094;SDS011;27753;55.724;37.612;2022-12-29T01:38:44;4.90;;;1.83;;
42094;SDS011;27753;55.724;37.612;2022-12-29T01:41:11;7.30;;;2.45;;
42094;SDS011;27753;55.724;37.612;2022-12-29T01:43:42;10.95;;;2.53;;
42094;SDS011;27753;55.724;37.612;2022-12-29T01:46:19;5.88;;;2.35;;
42094;SDS011;27753;55.724;37.612;2022-12-29T01:48:52;9.48;;;3.13;;
42094;SDS011;27753;55.724;37.612;2022-12-29T01:51:23;4.10;;;2.00;;
42094;SDS011;27753;55.724;37.612;2022-12-29T01:53:50;4.68;;;1.98;;
42094;SDS011;27753;55.724;37.612;2022-12-29T01:58:45;7.18;;;2.00;;
42094;SDS011;27753;55.724;37.612;2022-12-29T02:01:14;3.80;;;2.67;;
42094;SDS011;27753;55.724;37.612;2022-12-29T02:03:43;5.05;;;2.17;;
42094;SDS011;27753;55.724;37.612;2022-12-29T02:06:16;4.35;;;2.00;;
42094;SDS011;27753;55.724;37.612;2022-12-29T02:08:47;10.38;;;3.22;;
42094;SDS011;27753;55.724;37.612;2022-12-29T02:11:16;6.63;;;2.20;;
42094;SDS011;27753;55.724;37.612;2022-12-29T02:13:42;3.88;;;2.13;;
42094;SDS011;27753;55.724;37.612;2022-12-29T02:16:25;8.65;;;2.90;;
42094;SDS011;27753;55.724;37.612;2022-12-29T02:30:30;6.95;;;2.75;;
42094;SDS011;27753;55.724;37.612;2022-12-29T02:33:13;6.03;;;2.47;;
42094;SDS011;27753;55.724;37.612;2022-12-29T02:38:46;14.32;;;3.55;;
42094;SDS011;27753;55.724;37.612;2022-12-29T02:41:26;5.00;;;2.10;;
42094;SDS011;27753;55.724;37.612;2022-12-29T02:44:24;10.82;;;2.75;;
42094;SDS011;27753;55.724;37.612;2022-12-29T02:47:49;5.53;;;2.05;;
42094;SDS011;27753;55.724;37.612;2022-12-29T02:50:01;8.93;;;2.70;;
42094;SDS011;27753;55.724;37.612;2022-12-29T02:52:42;3.88;;;2.28;;
42094;SDS011;27753;55.724;37.612;2022-12-29T02:55:14;3.47;;;2.40;;
42094;SDS011;27753;55.724;37.612;2022-12-29T02:57:40;6.78;;;2.85;;
42094;SDS011;27753;55.724;37.612;2022-12-29T03:00:08;6.93;;;2.90;;
42094;SDS011;27753;55.724;37.612;2022-12-29T03:11:11;6.57;;;1.95;;
42094;SDS011;27753;55.724;37.612;2022-12-29T03:14:41;5.90;;;2.22;;
42094;SDS011;27753;55.724;37.612;2022-12-29T03:17:07;6.40;;;3.08;;
42094;SDS011;27753;55.724;37.612;2022-12-29T03:19:44;8.63;;;2.40;;
42094;SDS011;27753;55.724;37.612;2022-12-29T03:22:14;11.00;;;3.65;;
42094;SDS011;27753;55.724;37.612;2022-12-29T03:25:12;12.38;;;2.97;;
42094;SDS011;27753;55.724;37.612;2022-12-29T03:28:12;7.07;;;2.95;;
42094;SDS011;27753;55.724;37.612;2022-12-29T03:30:45;11.25;;;4.38;;
42094;SDS011;27753;55.724;37.612;2022-12-29T03:33:12;4.93;;;3.00;;
42094;SDS011;27753;55.724;37.612;2022-12-29T03:35:41;9.95;;;3.47;;
42094;SDS011;27753;55.724;37.612;2022-12-29T03:40:45;10.55;;;2.38;;
42094;SDS011;27753;55.724;37.612;2022-12-29T03:43:15;8.48;;;2.95;;
42094;SDS011;27753;55.724;37.612;2022-12-29T03:45:41;9.63;;;2.70;;
42094;SDS011;27753;55.724;37.612;2022-12-29T03:48:07;7.60;;;3.05;;
42094;SDS011;27753;55.724;37.612;2022-12-29T03:50:33;5.32;;;2.30;;
42094;SDS011;27753;55.724;37.612;2022-12-29T03:52:59;6.80;;;2.30;;
42094;SDS011;27753;55.724;37.612;2022-12-29T03:55:25;6.63;;;2.88;;
42094;SDS011;27753;55.724;37.612;2022-12-29T03:57:51;6.10;;;3.10;;
42094;SDS011;27753;55.724;37.612;2022-12-29T04:00:17;8.60;;;2.50;;
42094;SDS011;27753;55.724;37.612;2022-12-29T04:02:43;5.57;;;2.28;;
42094;SDS011;27753;55.724;37.612;2022-12-29T04:05:09;6.55;;;2.65;;
42094;SDS011;27753;55.724;37.612;2022-12-29T04:07:34;5.90;;;2.30;;
42094;SDS011;27753;55.724;37.612;2022-12-29T04:10:00;6.38;;;2.92;;
42094;SDS011;27753;55.724;37.612;2022-12-29T04:12:26;5.53;;;2.33;;
42094;SDS011;27753;55.724;37.612;2022-12-29T04:14:52;12.15;;;2.85;;
42094;SDS011;27753;55.724;37.612;2022-12-29T04:17:18;5.57;;;2.75;;
42094;SDS011;27753;55.724;37.612;2022-12-29T04:19:44;10.70;;;2.78;;
42094;SDS011;27753;55.724;37.612;2022-12-29T04:22:10;5.28;;;2.53;;
42094;SDS011;27753;55.724;37.612;2022-12-29T04:24:37;5.60;;;2.83;;
42094;SDS011;27753;55.724;37.612;2022-12-29T04:27:03;6.57;;;2.25;;
42094;SDS011;27753;55.724;37.612;2022-12-29T04:29:28;10.48;;;3.78;;
42094;SDS011;27753;55.724;37.612;2022-12-29T04:31:54;8.82;;;2.50;;
42094;SDS011;27753;55.724;37.612;2022-12-29T04:34:20;11.48;;;3.80;;
42094;SDS011;27753;55.724;37.612;2022-12-29T04:36:46;7.85;;;3.40;;
42094;SDS011;27753;55.724;37.612;2022-12-29T04:39:12;8.18;;;2.60;;
42094;SDS011;27753;55.724;37.612;2022-12-29T04:41:38;7.00;;;3.90;;
42094;SDS011;27753;55.724;37.612;2022-12-29T04:44:04;8.73;;;3.05;;
42094;SDS011;27753;55.724;37.612;2022-12-29T04:46:30;9.57;;;3.10;;
42094;SDS011;27753;55.724;37.612;2022-12-29T04:48:55;6.03;;;3.45;;
42094;SDS011;27753;55.724;37.612;2022-12-29T04:51:21;7.25;;;3.35;;
42094;SDS011;27753;55.724;37.612;2022-12-29T04:53:50;4.65;;;3.40;;
42094;SDS011;27753;55.724;37.612;2022-12-29T04:56:16;9.32;;;2.92;;
42094;SDS011;27753;55.724;37.612;2022-12-29T04:58:42;6.97;;;3.15;;
42094;SDS011;27753;55.724;37.612;2022-12-29T05:01:07;5.13;;;2.92;;
42094;SDS011;27753;55.724;37.612;2022-12-29T05:03:33;14.27;;;4.05;;
42094;SDS011;27753;55.724;37.612;2022-12-29T05:05:59;10.82;;;3.40;;
42094;SDS011;27753;55.724;37.612;2022-12-29T05:08:25;5.95;;;3.15;;
42094;SDS011;27753;55.724;37.612;2022-12-29T05:10:51;7.65;;;3.67;;
42094;SDS011;27753;55.724;37.612;2022-12-29T05:13:17;9.68;;;3.53;;
42094;SDS011;27753;55.724;37.612;2022-12-29T05:15:50;10.38;;;3.97;;
42094;SDS011;27753;55.724;37.612;2022-12-29T05:18:16;7.30;;;3.28;;
42094;SDS011;27753;55.724;37.612;2022-12-29T05:20:42;7.88;;;3.60;;
42094;SDS011;27753;55.724;37.612;2022-12-29T05:23:08;11.40;;;4.72;;
42094;SDS011;27753;55.724;37.612;2022-12-29T05:25:34;9.60;;;3.65;;
42094;SDS011;27753;55.724;37.612;2022-12-29T05:28:00;5.88;;;3.63;;
42094;SDS011;27753;55.724;37.612;2022-12-29T05:30:30;8.10;;;3.60;;
42094;SDS011;27753;55.724;37.612;2022-12-29T05:32:56;7.93;;;4.28;;
42094;SDS011;27753;55.724;37.612;2022-12-29T05:35:22;4.40;;;2.97;;
42094;SDS011;27753;55.724;37.612;2022-12-29T05:37:48;7.28;;;4.07;;
42094;SDS011;27753;55.724;37.612;2022-12-29T05:40:13;10.07;;;3.92;;
42094;SDS011;27753;55.724;37.612;2022-12-29T05:42:39;8.50;;;4.35;;
42094;SDS011;27753;55.724;37.612;2022-12-29T05:45:05;17.08;;;4.95;;
42094;SDS011;27753;55.724;37.612;2022-12-29T05:47:32;12.18;;;4.78;;
42094;SDS011;27753;55.724;37.612;2022-12-29T05:49:58;12.80;;;5.13;;
42094;SDS011;27753;55.724;37.612;2022-12-29T05:52:24;9.38;;;4.22;;
42094;SDS011;27753;55.724;37.612;2022-12-29T05:54:50;8.15;;;4.18;;
42094;SDS011;27753;55.724;37.612;2022-12-29T05:57:16;10.30;;;5.00;;
42094;SDS011;27753;55.724;37.612;2022-12-29T05:59:41;10.85;;;4.38;;
42094;SDS011;27753;55.724;37.612;2022-12-29T06:02:08;10.52;;;3.92;;
42094;SDS011;27753;55.724;37.612;2022-12-29T06:04:34;4.57;;;3.70;;
42094;SDS011;27753;55.724;37.612;2022-12-29T06:07:00;10.63;;;4.75;;
42094;SDS011;27753;55.724;37.612;2022-12-29T06:09:26;11.90;;;3.83;;
42094;SDS011;27753;55.724;37.612;2022-12-29T06:11:52;4.63;;;3.42;;
42094;SDS011;27753;55.724;37.612;2022-12-29T06:14:18;5.95;;;3.72;;
42094;SDS011;27753;55.724;37.612;2022-12-29T06:16:43;13.85;;;4.45;;
42094;SDS011;27753;55.724;37.612;2022-12-29T06:19:09;11.60;;;4.32;;
42094;SDS011;27753;55.724;37.612;2022-12-29T06:21:35;11.05;;;4.63;;
42094;SDS011;27753;55.724;37.612;2022-12-29T06:24:02;11.13;;;4.18;;
42094;SDS011;27753;55.724;37.612;2022-12-29T06:26:29;8.05;;;4.50;;
42094;SDS011;27753;55.724;37.612;2022-12-29T06:28:55;8.73;;;3.53;;
42094;SDS011;27753;55.724;37.612;2022-12-29T06:31:21;11.48;;;4.43;;
42094;SDS011;27753;55.724;37.612;2022-12-29T06:33:47;7.78;;;4.38;;
42094;SDS011;27753;55.724;37.612;2022-12-29T06:36:14;8.77;;;4.53;;
42094;SDS011;27753;55.724;37.612;2022-12-29T06:38:39;9.50;;;3.83;;
42094;SDS011;27753;55.724;37.612;2022-12-29T06:41:05;4.95;;;3.95;;
42094;SDS011;27753;55.724;37.612;2022-12-29T06:43:31;6.20;;;3.85;;
42094;SDS011;27753;55.724;37.612;2022-12-29T06:45:58;8.20;;;3.70;;
42094;SDS011;27753;55.724;37.612;2022-12-29T06:48:24;6.18;;;3.90;;
42094;SDS011;27753;55.724;37.612;2022-12-29T06:50:50;10.57;;;4.05;;
42094;SDS011;27753;55.724;37.612;2022-12-29T06:53:16;7.70;;;3.53;;
42094;SDS011;27753;55.724;37.612;2022-12-29T06:55:42;9.38;;;3.88;;
42094;SDS011;27753;55.724;37.612;2022-12-29T06:58:08;6.65;;;3.70;;
42094;SDS011;27753;55.724;37.612;2022-12-29T07:00:34;4.68;;;4.15;;
42094;SDS011;27753;55.724;37.612;2022-12-29T07:03:00;8.55;;;4.18;;
42094;SDS011;27753;55.724;37.612;2022-12-29T07:05:26;7.75;;;3.63;;
42094;SDS011;27753;55.724;37.612;2022-12-29T07:07:53;5.17;;;3.43;;
42094;SDS011;27753;55.724;37.612;2022-12-29T07:10:19;5.53;;;3.90;;
42094;SDS011;27753;55.724;37.612;2022-12-29T07:12:45;10.07;;;4.80;;
42094;SDS011;27753;55.724;37.612;2022-12-29T07:15:14;12.98;;;5.85;;
42094;SDS011;27753;55.724;37.612;2022-12-29T07:17:40;14.10;;;7.13;;
42094;SDS011;27753;55.724;37.612;2022-12-29T07:20:06;10.02;;;5.38;;
42094;SDS011;27753;55.724;37.612;2022-12-29T07:22:33;14.30;;;4.45;;
42094;SDS011;27753;55.724;37.612;2022-12-29T07:24:58;17.75;;;7.30;;
42094;SDS011;27753;55.724;37.612;2022-12-29T07:27:24;8.23;;;5.32;;
42094;SDS011;27753;55.724;37.612;2022-12-29T07:29:50;14.00;;;7.97;;
42094;SDS011;27753;55.724;37.612;2022-12-29T07:32:16;16.08;;;9.48;;
42094;SDS011;27753;55.724;37.612;2022-12-29T07:34:42;16.65;;;7.95;;
42094;SDS011;27753;55.724;37.612;2022-12-29T07:37:12;10.40;;;7.18;;
42094;SDS011;27753;55.724;37.612;2022-12-29T07:39:40;19.80;;;8.45;;
42094;SDS011;27753;55.724;37.612;2022-12-29T07:42:06;13.23;;;6.75;;
42094;SDS011;27753;55.724;37.612;2022-12-29T07:44:32;17.55;;;7.03;;
42094;SDS011;27753;55.724;37.612;2022-12-29T07:46:58;12.57;;;8.30;;
42094;SDS011;27753;55.724;37.612;2022-12-29T07:49:42;16.95;;;7.78;;
42094;SDS011;27753;55.724;37.612;2022-12-29T07:52:27;15.10;;;7.30;;
42094;SDS011;27753;55.724;37.612;2022-12-29T07:55:13;11.93;;;5.75;;
42094;SDS011;27753;55.724;37.612;2022-12-29T08:00:24;16.85;;;7.47;;
42094;SDS011;27753;55.724;37.612;2022-12-29T08:05:53;14.90;;;6.57;;
42094;SDS011;27753;55.724;37.612;2022-12-29T08:11:05;17.13;;;7.68;;
42094;SDS011;27753;55.724;37.612;2022-12-29T08:13:50;10.23;;;7.15;;
42094;SDS011;27753;55.724;37.612;2022-12-29T08:16:16;16.27;;;6.30;;
42094;SDS011;27753;55.724;37.612;2022-12-29T08:21:45;13.48;;;8.60;;
42094;SDS011;27753;55.724;37.612;2022-12-29T08:29:58;24.90;;;10.40;;
42094;SDS011;27753;55.724;37.612;2022-12-29T08:37:54;10.57;;;6.60;;
42094;SDS011;27753;55.724;37.612;2022-12-29T08:40:38;12.65;;;7.05;;
42094;SDS011;27753;55.724;37.612;2022-12-29T08:46:08;10.15;;;6.47;;
42094;SDS011;27753;55.724;37.612;2022-12-29T08:54:59;16.60;;;9.38;;
42094;SDS011;27753;55.724;37.612;2022-12-29T09:03:12;17.50;;;9.82;;
42094;SDS011;27753;55.724;37.612;2022-12-29T09:08:22;20.60;;;10.90;;
42094;SDS011;27753;55.724;37.612;2022-12-29T09:11:08;18.27;;;10.45;;
42094;SDS011;27753;55.724;37.612;2022-12-29T09:16:22;18.95;;;10.07;;
42094;SDS011;27753;55.724;37.612;2022-12-29T09:22:28;17.70;;;10.48;;
42094;SDS011;27753;55.724;37.612;2022-12-29T09:27:42;22.70;;;12.65;;
42094;SDS011;27753;55.724;37.612;2022-12-29T09:30:09;19.38;;;9.27;;
42094;SDS011;27753;55.724;37.612;2022-12-29T09:32:53;20.85;;;12.15;;
42094;SDS011;27753;55.724;37.612;2022-12-29T09:35:19;24.52;;;10.70;;
42094;SDS011;27753;55.724;37.612;2022-12-29T09:38:03;16.08;;;9.23;;
42094;SDS011;27753;55.724;37.612;2022-12-29T09:40:30;18.83;;;10.95;;
42094;SDS011;27753;55.724;37.612;2022-12-29T09:55:03;16.02;;;9.70;;
42094;SDS011;27753;55.724;37.612;2022-12-29T10:09:45;17.80;;;8.32;;
42094;SDS011;27753;55.724;37.612;2022-12-29T10:15:33;13.93;;;8.02;;
42094;SDS011;27753;55.724;37.612;2022-12-29T10:24:19;16.33;;;10.25;;
42094;SDS011;27753;55.724;37.612;2022-12-29T10:26:47;15.68;;;11.35;;
42094;SDS011;27753;55.724;37.612;2022-12-29T10:29:20;13.55;;;10.23;;
42094;SDS011;27753;55.724;37.612;2022-12-29T10:31:50;20.02;;;12.00;;
42094;SDS011;27753;55.724;37.612;2022-12-29T10:34:37;18.52;;;10.88;;
42094;SDS011;27753;55.724;37.612;2022-12-29T10:39:54;15.90;;;10.82;;
42094;SDS011;27753;55.724;37.612;2022-12-29T10:44:58;21.08;;;11.20;;
42094;SDS011;27753;55.724;37.612;2022-12-29T10:48:02;17.98;;;11.98;;
42094;SDS011;27753;55.724;37.612;2022-12-29T10:57:16;24.27;;;12.18;;
42094;SDS011;27753;55.724;37.612;2022-12-29T10:59:52;24.05;;;12.70;;
42094;SDS011;27753;55.724;37.612;2022-12-29T11:08:26;20.85;;;11.13;;
42094;SDS011;27753;55.724;37.612;2022-12-29T11:11:14;17.80;;;10.48;;
42094;SDS011;27753;55.724;37.612;2022-12-29T11:16:37;12.90;;;9.15;;
42094;SDS011;27753;55.724;37.612;2022-12-29T11:27:38;17.48;;;11.27;;
42094;SDS011;27753;55.724;37.612;2022-12-29T11:33:30;16.25;;;9.65;;
42094;SDS011;27753;55.724;37.612;2022-12-29T11:39:26;13.18;;;8.57;;
42094;SDS011;27753;55.724;37.612;2022-12-29T11:44:49;13.43;;;7.63;;
42094;SDS011;27753;55.724;37.612;2022-12-29T11:52:58;21.60;;;8.63;;
42094;SDS011;27753;55.724;37.612;2022-12-29T11:58:29;12.25;;;8.35;;
42094;SDS011;27753;55.724;37.612;2022-12-29T12:01:05;12.20;;;8.02;;
42094;SDS011;27753;55.724;37.612;2022-12-29T12:06:41;11.50;;;8.15;;
42094;SDS011;27753;55.724;37.612;2022-12-29T12:18:52;14.55;;;9.27;;
42094;SDS011;27753;55.724;37.612;2022-12-29T12:24:25;26.90;;;9.30;;
42094;SDS011;27753;55.724;37.612;2022-12-29T12:27:26;22.50;;;9.85;;
42094;SDS011;27753;55.724;37.612;2022-12-29T12:55:43;18.20;;;10.60;;
42094;SDS011;27753;55.724;37.612;2022-12-29T13:24:30;19.60;;;11.15;;
42094;SDS011;27753;55.724;37.612;2022-12-29T13:30:15;20.90;;;10.38;;
42094;SDS011;27753;55.724;37.612;2022-12-29T13:56:35;16.27;;;9.57;;
42094;SDS011;27753;55.724;37.612;2022-12-29T14:02:13;18.55;;;11.10;;
42094;SDS011;27753;55.724;37.612;2022-12-29T14:08:05;19.63;;;10.63;;
42094;SDS011;27753;55.724;37.612;2022-12-29T14:10:50;17.70;;;11.35;;
42094;SDS011;27753;55.724;37.612;2022-12-29T14:13:23;29.67;;;14.57;;
42094;SDS011;27753;55.724;37.612;2022-12-29T14:16:11;24.05;;;13.98;;
42094;SDS011;27753;55.724;37.612;2022-12-29T14:21:55;19.98;;;12.13;;
42094;SDS011;27753;55.724;37.612;2022-12-29T14:24:35;17.77;;;11.25;;
42094;SDS011;27753;55.724;37.612;2022-12-29T14:35:42;26.52;;;11.55;;
42094;SDS011;27753;55.724;37.612;2022-12-29T14:41:16;20.10;;;12.85;;
42094;SDS011;27753;55.724;37.612;2022-12-29T14:49:42;22.73;;;13.00;;
42094;SDS011;27753;55.724;37.612;2022-12-29T14:54:42;33.65;;;16.67;;
42094;SDS011;27753;55.724;37.612;2022-12-29T14:57:27;29.95;;;14.65;;
42094;SDS011;27753;55.724;37.612;2022-12-29T15:03:05;33.55;;;16.20;;
42094;SDS011;27753;55.724;37.612;2022-12-29T15:05:35;36.47;;;18.05;;
42094;SDS011;27753;55.724;37.612;2022-12-29T15:11:09;30.15;;;16.60;;
42094;SDS011;27753;55.724;37.612;2022-12-29T15:13:55;31.00;;;16.40;;
42094;SDS011;27753;55.724;37.612;2022-12-29T15:16:40;31.17;;;17.70;;
42094;SDS011;27753;55.724;37.612;2022-12-29T15:19:20;33.85;;;20.00;;
42094;SDS011;27753;55.724;37.612;2022-12-29T15:22:04;39.50;;;18.90;;
42094;SDS011;27753;55.724;37.612;2022-12-29T15:30:29;46.33;;;20.63;;
42094;SDS011;27753;55.724;37.612;2022-12-29T15:32:55;36.45;;;18.60;;
42094;SDS011;27753;55.724;37.612;2022-12-29T15:38:28;41.63;;;19.85;;
42094;SDS011;27753;55.724;37.612;2022-12-29T15:41:00;47.30;;;23.15;;
42094;SDS011;27753;55.724;37.612;2022-12-29T15:46:13;35.80;;;19.50;;
42094;SDS011;27753;55.724;37.612;2022-12-29T15:48:58;44.53;;;21.48;;
42094;SDS011;27753;55.724;37.612;2022-12-29T15:54:27;43.47;;;22.38;;
42094;SDS011;27753;55.724;37.612;2022-12-29T15:56:56;47.83;;;18.40;;
42094;SDS011;27753;55.724;37.612;2022-12-29T15:59:44;51.67;;;22.75;;
42094;SDS011;27753;55.724;37.612;2022-12-29T16:04:59;43.97;;;20.45;;
42094;SDS011;27753;55.724;37.612;2022-12-29T16:07:32;48.35;;;21.42;;
42094;SDS011;27753;55.724;37.612;2022-12-29T16:10:02;43.20;;;22.35;;
42094;SDS011;27753;55.724;37.612;2022-12-29T16:17:47;42.70;;;22.10;;
42094;SDS011;27753;55.724;37.612;2022-12-29T16:23:09;48.10;;;21.92;;
42094;SDS011;27753;55.724;37.612;2022-12-29T16:26:02;49.85;;;24.30;;
42094;SDS011;27753;55.724;37.612;2022-12-29T16:28:36;40.70;;;21.88;;
42094;SDS011;27753;55.724;37.612;2022-12-29T16:34:24;57.13;;;23.50;;
42094;SDS011;27753;55.724;37.612;2022-12-29T16:39:47;61.88;;;26.67;;
42094;SDS011;27753;55.724;37.612;2022-12-29T16:48:19;50.13;;;24.67;;
42094;SDS011;27753;55.724;37.612;2022-12-29T16:54:00;58.70;;;23.23;;
42094;SDS011;27753;55.724;37.612;2022-12-29T16:56:28;53.05;;;26.00;;
42094;SDS011;27753;55.724;37.612;2022-12-29T17:04:10;51.45;;;24.80;;
42094;SDS011;27753;55.724;37.612;2022-12-29T17:06:38;57.42;;;26.10;;
42094;SDS011;27753;55.724;37.612;2022-12-29T17:09:18;57.90;;;28.87;;
42094;SDS011;27753;55.724;37.612;2022-12-29T17:11:46;57.95;;;28.35;;
42094;SDS011;27753;55.724;37.612;2022-12-29T17:20:00;55.78;;;26.55;;
42094;SDS011;27753;55.724;37.612;2022-12-29T17:25:23;61.20;;;26.95;;
42094;SDS011;27753;55.724;37.612;2022-12-29T17:31:00;46.40;;;24.88;;
42094;SDS011;27753;55.724;37.612;2022-12-29T17:33:40;46.10;;;24.15;;
42094;SDS011;27753;55.724;37.612;2022-12-29T17:45:17;48.53;;;25.40;;
42094;SDS011;27753;55.724;37.612;2022-12-29T17:51:07;45.60;;;23.02;;
42094;SDS011;27753;55.724;37.612;2022-12-29T17:53:36;45.25;;;24.83;;
42094;SDS011;27753;55.724;37.612;2022-12-29T17:56:20;47.72;;;24.05;;
42094;SDS011;27753;55.724;37.612;2022-12-29T18:04:20;39.33;;;21.83;;
42094;SDS011;27753;55.724;37.612;2022-12-29T18:06:46;47.15;;;24.73;;
42094;SDS011;27753;55.724;37.612;2022-12-29T18:15:04;49.90;;;28.08;;
42094;SDS011;27753;55.724;37.612;2022-12-29T18:23:46;39.83;;;23.15;;
42094;SDS011;27753;55.724;37.612;2022-12-29T18:26:17;43.80;;;24.83;;
42094;SDS011;27753;55.724;37.612;2022-12-29T18:29:02;45.90;;;23.50;;
42094;SDS011;27753;55.724;37.612;2022-12-29T18:31:29;49.40;;;25.73;;
42094;SDS011;27753;55.724;37.612;2022-12-29T18:34:13;44.88;;;25.73;;
42094;SDS011;27753;55.724;37.612;2022-12-29T18:36:40;54.80;;;26.55;;
42094;SDS011;27753;55.724;37.612;2022-12-29T18:39:27;46.73;;;24.43;;
42094;SDS011;27753;55.724;37.612;2022-12-29T18:41:52;43.40;;;25.80;;
42094;SDS011;27753;55.724;37.612;2022-12-29T18:44:18;47.90;;;24.83;;
42094;SDS011;27753;55.724;37.612;2022-12-29T18:55:36;42.35;;;24.73;;
42094;SDS011;27753;55.724;37.612;2022-12-29T19:00:46;42.85;;;22.25;;
42094;SDS011;27753;55.724;37.612;2022-12-29T19:03:31;40.03;;;23.65;;
42094;SDS011;27753;55.724;37.612;2022-12-29T19:05:58;45.10;;;24.67;;
42094;SDS011;27753;55.724;37.612;2022-12-29T19:08:24;43.55;;;24.10;;
42094;SDS011;27753;55.724;37.612;2022-12-29T19:11:09;42.38;;;26.48;;
42094;SDS011;27753;55.724;37.612;2022-12-29T19:13:53;45.28;;;24.58;;
42094;SDS011;27753;55.724;37.612;2022-12-29T19:19:03;38.90;;;22.80;;
42094;SDS011;27753;55.724;37.612;2022-12-29T19:21:29;42.72;;;22.08;;
42094;SDS011;27753;55.724;37.612;2022-12-29T19:26:59;40.65;;;22.27;;
42094;SDS011;27753;55.724;37.612;2022-12-29T19:29:25;47.90;;;22.98;;
42094;SDS011;27753;55.724;37.612;2022-12-29T19:31:51;46.42;;;23.65;;
42094;SDS011;27753;55.724;37.612;2022-12-29T19:34:35;47.38;;;22.88;;
42094;SDS011;27753;55.724;37.612;2022-12-29T19:37:20;51.17;;;25.08;;
42094;SDS011;27753;55.724;37.612;2022-12-29T19:42:50;50.17;;;23.02;;
42094;SDS011;27753;55.724;37.612;2022-12-29T19:45:16;42.58;;;22.95;;
42094;SDS011;27753;55.724;37.612;2022-12-29T19:47:43;50.25;;;23.05;;
42094;SDS011;27753;55.724;37.612;2022-12-29T19:52:56;44.88;;;23.02;;
42094;SDS011;27753;55.724;37.612;2022-12-29T19:55:41;37.88;;;21.52;;
42094;SDS011;27753;55.724;37.612;2022-12-29T19:58:08;41.72;;;22.65;;
42094;SDS011;27753;55.724;37.612;2022-12-29T20:03:37;41.83;;;21.95;;
42094;SDS011;27753;55.724;37.612;2022-12-29T20:06:06;43.17;;;22.15;;
42094;SDS011;27753;55.724;37.612;2022-12-29T20:11:36;39.58;;;23.08;;
42094;SDS011;27753;55.724;37.612;2022-12-29T20:17:06;44.83;;;23.20;;
42094;SDS011;27753;55.724;37.612;2022-12-29T20:19:51;42.70;;;21.88;;
42094;SDS011;27753;55.724;37.612;2022-12-29T20:27:46;35.70;;;22.85;;
42094;SDS011;27753;55.724;37.612;2022-12-29T20:30:11;34.88;;;21.30;;
42094;SDS011;27753;55.724;37.612;2022-12-29T20:35:22;43.17;;;21.70;;
42094;SDS011;27753;55.724;37.612;2022-12-29T20:38:06;38.13;;;20.55;;
42094;SDS011;27753;55.724;37.612;2022-12-29T20:40:51;41.05;;;21.60;;
42094;SDS011;27753;55.724;37.612;2022-12-29T20:46:20;36.33;;;20.23;;
42094;SDS011;27753;55.724;37.612;2022-12-29T20:54:33;32.00;;;19.40;;
42094;SDS011;27753;55.724;37.612;2022-12-29T20:57:18;35.08;;;19.60;;
42094;SDS011;27753;55.724;37.612;2022-12-29T20:59:44;39.10;;;21.13;;
42094;SDS011;27753;55.724;37.612;2022-12-29T21:08:05;39.60;;;21.65;;
42094;SDS011;27753;55.724;37.612;2022-12-29T21:10:31;33.40;;;19.88;;
42094;SDS011;27753;55.724;37.612;2022-12-29T21:16:02;37.28;;;20.98;;
42094;SDS011;27753;55.724;37.612;2022-12-29T21:21:50;38.95;;;21.42;;
42094;SDS011;27753;55.724;37.612;2022-12-29T21:24:34;35.35;;;22.15;;
42094;SDS011;27753;55.724;37.612;2022-12-29T21:30:22;34.42;;;20.92;;
42094;SDS011;27753;55.724;37.612;2022-12-29T21:33:06;34.20;;;20.70;;
42094;SDS011;27753;55.724;37.612;2022-12-29T21:35:38;46.97;;;24.55;;
42094;SDS011;27753;55.724;37.612;2022-12-29T21:38:05;39.53;;;25.10;;
42094;SDS011;27753;55.724;37.612;2022-12-29T21:43:35;39.35;;;22.98;;
42094;SDS011;27753;55.724;37.612;2022-12-29T21:46:39;35.70;;;21.85;;
42094;SDS011;27753;55.724;37.612;2022-12-29T21:52:07;40.85;;;23.23;;
42094;SDS011;27753;55.724;37.612;2022-12-29T21:54:33;35.25;;;23.00;;
42094;SDS011;27753;55.724;37.612;2022-12-29T22:00:45;35.58;;;21.30;;
42094;SDS011;27753;55.724;37.612;2022-12-29T22:03:48;33.80;;;22.00;;
42094;SDS011;27753;55.724;37.612;2022-12-29T22:06:51;40.42;;;23.08;;
42094;SDS011;27753;55.724;37.612;2022-12-29T22:09:35;34.95;;;20.63;;
42094;SDS011;27753;55.724;37.612;2022-12-29T22:12:22;43.90;;;24.40;;
42094;SDS011;27753;55.724;37.612;2022-12-29T22:15:27;33.72;;;21.67;;
42094;SDS011;27753;55.724;37.612;2022-12-29T22:21:15;36.90;;;22.45;;
42094;SDS011;27753;55.724;37.612;2022-12-29T22:31:55;47.70;;;25.70;;
42094;SDS011;27753;55.724;37.612;2022-12-29T22:34:41;46.50;;;24.48;;